Time;durP1;ratioP1;P1;durP2;ratioP2;P2;SDS_P1;SDS_P2;PMS_P1;PMS_P2;Temp;Humidity;BMP_temperature;BMP_pressure;BME280_temperature;BME280_humidity;BME280_pressure;Samples;Min_cycle;Max_cycle;Signal;HPM_P1;HPM_P2
2022/01/15 00:02:12;;;;;;;5.17;2.30;;;;;;;;;;5030935;28;20204;-60
2022/01/15 00:04:39;;;;;;;6.43;2.37;;;;;;;;;;5031700;28;20228;-60
2022/01/15 00:07:08;;;;;;;8.03;2.87;;;;;;;;;;5031704;28;20209;-60
2022/01/15 00:09:35;;;;;;;8.87;4.73;;;;;;;;;;5031032;28;20197;-60
2022/01/15 00:12:02;;;;;;;2.23;2.00;;;;;;;;;;5031326;28;20205;-60
2022/01/15 00:14:34;;;;;;;3.00;2.00;;;;;;;;;;5031817;28;20697;-60
2022/01/15 00:17:06;;;;;;;6.33;2.27;;;;;;;;;;5031209;28;20201;-60
2022/01/15 00:19:41;;;;;;;1.63;1.07;;;;;;;;;;5031885;28;20275;-60
2022/01/15 00:22:10;;;;;;;9.63;2.77;;;;;;;;;;5031128;28;20290;-60
2022/01/15 00:24:37;;;;;;;4.80;2.00;;;;;;;;;;5031431;28;20240;-61
2022/01/15 00:27:05;;;;;;;10.97;4.20;;;;;;;;;;5031229;28;20221;-60
2022/01/15 00:29:32;;;;;;;4.60;2.67;;;;;;;;;;5030954;28;20266;-61
2022/01/15 00:31:59;;;;;;;4.17;2.97;;;;;;;;;;5031215;28;20262;-61
2022/01/15 00:34:26;;;;;;;5.07;3.20;;;;;;;;;;5031105;28;20237;-60
2022/01/15 00:36:54;;;;;;;6.10;2.73;;;;;;;;;;5030673;28;20208;-60
2022/01/15 00:39:22;;;;;;;7.00;3.37;;;;;;;;;;5031232;28;20210;-60
2022/01/15 00:41:49;;;;;;;5.17;1.50;;;;;;;;;;5031236;28;20680;-60
2022/01/15 00:44:16;;;;;;;6.30;3.73;;;;;;;;;;5030950;28;20233;-60
2022/01/15 00:46:43;;;;;;;5.47;3.00;;;;;;;;;;5028964;28;20210;-61
2022/01/15 00:49:10;;;;;;;6.63;2.37;;;;;;;;;;5030934;28;20268;-60
2022/01/15 00:51:37;;;;;;;13.20;3.20;;;;;;;;;;5030781;28;20233;-60
2022/01/15 00:54:05;;;;;;;3.80;2.20;;;;;;;;;;5030626;28;20644;-60
2022/01/15 00:56:33;;;;;;;2.00;1.83;;;;;;;;;;5030799;28;20200;-60
2022/01/15 00:59:00;;;;;;;1.73;1.57;;;;;;;;;;5030693;28;20258;-60
2022/01/15 01:01:27;;;;;;;7.33;2.43;;;;;;;;;;5030627;28;20213;-60
2022/01/15 01:03:54;;;;;;;11.03;2.47;;;;;;;;;;5030627;28;20229;-60
2022/01/15 01:06:21;;;;;;;4.20;2.33;;;;;;;;;;5030536;28;20262;-60
2022/01/15 01:08:48;;;;;;;0.97;0.97;;;;;;;;;;5030515;28;20220;-60
2022/01/15 01:11:18;;;;;;;4.63;1.80;;;;;;;;;;5030222;28;20670;-61
2022/01/15 01:24:41;;;;;;;5.87;2.00;;;;;;;;;;5029951;28;20231;-60
2022/01/15 01:27:14;;;;;;;1.27;1.20;;;;;;;;;;5030410;28;20220;-61
2022/01/15 01:29:54;;;;;;;2.23;2.00;;;;;;;;;;5029722;28;20255;-59
2022/01/15 01:32:40;;;;;;;4.17;2.63;;;;;;;;;;5030268;28;20210;-59
2022/01/15 01:35:12;;;;;;;3.93;1.70;;;;;;;;;;5029936;28;20211;-60
2022/01/15 01:37:43;;;;;;;2.40;2.20;;;;;;;;;;5029354;28;20605;-60
2022/01/15 01:40:20;;;;;;;7.90;2.83;;;;;;;;;;5029946;28;20262;-59
2022/01/15 01:42:57;;;;;;;2.17;1.93;;;;;;;;;;5029405;28;20670;-60
2022/01/15 01:45:25;;;;;;;3.50;2.33;;;;;;;;;;5029826;28;20330;-60
2022/01/15 01:47:52;;;;;;;7.43;3.60;;;;;;;;;;5029331;28;20208;-60
2022/01/15 01:50:21;;;;;;;2.90;2.30;;;;;;;;;;5029518;28;20655;-60
2022/01/15 01:52:48;;;;;;;4.97;2.57;;;;;;;;;;5029972;28;20213;-60
2022/01/15 01:55:15;;;;;;;2.33;1.90;;;;;;;;;;5029585;28;20782;-60
2022/01/15 01:57:43;;;;;;;6.77;1.60;;;;;;;;;;5029600;28;20213;-60
2022/01/15 02:00:11;;;;;;;1.67;1.57;;;;;;;;;;5029256;28;20204;-60
2022/01/15 02:02:40;;;;;;;0.70;0.70;;;;;;;;;;5029155;28;20279;-60
2022/01/15 02:05:08;;;;;;;2.37;1.67;;;;;;;;;;5028537;28;20262;-60
2022/01/15 02:07:35;;;;;;;2.20;2.00;;;;;;;;;;5028797;28;20212;-60
2022/01/15 02:10:02;;;;;;;0.73;0.73;;;;;;;;;;5028691;28;20671;-60
2022/01/15 02:12:29;;;;;;;4.50;2.27;;;;;;;;;;5028675;28;20221;-60
2022/01/15 02:14:56;;;;;;;4.10;1.83;;;;;;;;;;5028676;28;20250;-60
2022/01/15 02:17:23;;;;;;;2.23;2.03;;;;;;;;;;5028812;28;20200;-60
2022/01/15 02:25:18;;;;;;;6.77;2.37;;;;;;;;;;5028585;28;20597;-60
2022/01/15 02:27:45;;;;;;;3.50;1.70;;;;;;;;;;5028588;28;20212;-61
2022/01/15 02:30:13;;;;;;;2.07;1.37;;;;;;;;;;5028477;28;20271;-60
2022/01/15 02:32:40;;;;;;;0.70;0.70;;;;;;;;;;5028402;28;20243;-60
2022/01/15 02:35:09;;;;;;;3.50;2.23;;;;;;;;;;5027846;28;20262;-60
2022/01/15 02:37:36;;;;;;;4.70;1.83;;;;;;;;;;5028461;28;20265;-60
2022/01/15 02:40:03;;;;;;;5.03;1.90;;;;;;;;;;5027187;28;20213;-59
2022/01/15 02:42:31;;;;;;;2.10;1.60;;;;;;;;;;5028288;28;20201;-60
2022/01/15 02:45:01;;;;;;;0.30;0.30;;;;;;;;;;5028349;28;20258;-61
2022/01/15 02:50:14;;;;;;;10.70;3.03;;;;;;;;;;5028591;28;20227;-60
2022/01/15 02:52:41;;;;;;;3.60;2.20;;;;;;;;;;5028028;28;20208;-60
2022/01/15 02:55:09;;;;;;;3.47;1.97;;;;;;;;;;5028332;28;20991;-60
2022/01/15 02:57:36;;;;;;;7.03;2.70;;;;;;;;;;5027408;28;20728;-60
2022/01/15 03:00:04;;;;;;;11.43;2.60;;;;;;;;;;5027651;28;20262;-59
2022/01/15 03:02:33;;;;;;;1.20;0.77;;;;;;;;;;5028394;28;20212;-60
2022/01/15 03:05:00;;;;;;;1.83;1.73;;;;;;;;;;5028220;28;20604;-60
2022/01/15 03:07:28;;;;;;;5.73;2.73;;;;;;;;;;5027803;28;20207;-60
2022/01/15 03:09:55;;;;;;;2.70;1.80;;;;;;;;;;5028323;28;20204;-60
2022/01/15 03:12:23;;;;;;;2.63;2.13;;;;;;;;;;5028684;28;20216;-60
2022/01/15 03:14:54;;;;;;;9.07;3.53;;;;;;;;;;5028768;28;20671;-60
2022/01/15 03:17:21;;;;;;;5.93;2.50;;;;;;;;;;5026738;28;20939;-60
2022/01/15 03:19:48;;;;;;;2.47;1.10;;;;;;;;;;5028242;28;20212;-61
2022/01/15 03:22:15;;;;;;;3.70;2.20;;;;;;;;;;5028678;28;20205;-60
2022/01/15 03:24:44;;;;;;;5.43;1.93;;;;;;;;;;5028848;28;20306;-60
2022/01/15 03:27:11;;;;;;;2.63;1.60;;;;;;;;;;5028181;28;20208;-60
2022/01/15 03:29:38;;;;;;;3.93;1.77;;;;;;;;;;5028681;28;20693;-60
2022/01/15 03:32:05;;;;;;;7.50;2.97;;;;;;;;;;5027993;28;20216;-60
2022/01/15 03:34:33;;;;;;;5.37;2.53;;;;;;;;;;5032006;28;20650;-60
2022/01/15 03:37:01;;;;;;;3.03;2.37;;;;;;;;;;5032074;28;20266;-60
2022/01/15 03:39:28;;;;;;;5.50;3.17;;;;;;;;;;5032210;28;20209;-60
2022/01/15 03:41:56;;;;;;;2.97;1.80;;;;;;;;;;5032390;28;20270;-60
2022/01/15 03:44:23;;;;;;;4.80;3.17;;;;;;;;;;5032023;28;20210;-60
2022/01/15 03:46:50;;;;;;;5.60;1.77;;;;;;;;;;5031621;28;20209;-60
2022/01/15 03:49:17;;;;;;;5.80;3.03;;;;;;;;;;5031916;28;20261;-60
2022/01/15 03:51:44;;;;;;;3.50;2.37;;;;;;;;;;5031486;28;20212;-60
2022/01/15 03:54:11;;;;;;;8.23;2.70;;;;;;;;;;5031362;28;20208;-60
2022/01/15 03:56:38;;;;;;;6.50;2.43;;;;;;;;;;5031942;28;20269;-60
2022/01/15 03:59:06;;;;;;;1.33;1.00;;;;;;;;;;5031721;28;20209;-60
2022/01/15 04:01:34;;;;;;;3.43;1.87;;;;;;;;;;5031714;28;20282;-60
2022/01/15 04:04:01;;;;;;;3.33;0.97;;;;;;;;;;5031776;28;20266;-60
2022/01/15 04:06:28;;;;;;;3.27;2.53;;;;;;;;;;5029318;28;20228;-60
2022/01/15 04:08:55;;;;;;;6.97;2.43;;;;;;;;;;5031589;28;20690;-60
2022/01/15 04:11:22;;;;;;;2.30;1.77;;;;;;;;;;5031812;28;20216;-61
2022/01/15 04:13:49;;;;;;;2.40;1.60;;;;;;;;;;5031419;28;20640;-61
2022/01/15 04:16:17;;;;;;;2.10;1.83;;;;;;;;;;5031570;28;20243;-60
2022/01/15 04:18:44;;;;;;;5.10;2.87;;;;;;;;;;5031366;28;20204;-60
2022/01/15 04:21:12;;;;;;;8.43;2.80;;;;;;;;;;5031556;28;20201;-60
2022/01/15 04:23:39;;;;;;;7.00;2.80;;;;;;;;;;5031163;28;20651;-60
2022/01/15 04:26:06;;;;;;;11.57;2.93;;;;;;;;;;5031557;28;20287;-60
2022/01/15 04:28:34;;;;;;;6.10;2.87;;;;;;;;;;5031016;28;20206;-60
2022/01/15 04:31:05;;;;;;;6.87;2.37;;;;;;;;;;5031574;28;20220;-60
2022/01/15 04:33:34;;;;;;;4.13;1.43;;;;;;;;;;5030737;28;20237;-61
2022/01/15 04:36:01;;;;;;;4.10;3.30;;;;;;;;;;5030916;28;20233;-59
2022/01/15 04:41:20;;;;;;;7.13;2.60;;;;;;;;;;5026829;28;20211;-61
2022/01/15 04:43:47;;;;;;;7.07;2.57;;;;;;;;;;5030640;28;20215;-59
2022/01/15 04:46:14;;;;;;;6.00;2.97;;;;;;;;;;5030865;28;20233;-61
2022/01/15 04:48:42;;;;;;;5.50;2.93;;;;;;;;;;5031214;28;20208;-60
2022/01/15 04:51:09;;;;;;;3.97;2.00;;;;;;;;;;5030718;28;20244;-60
2022/01/15 04:53:36;;;;;;;5.60;2.30;;;;;;;;;;5023943;28;20200;-60
2022/01/15 04:56:03;;;;;;;9.23;2.37;;;;;;;;;;5030443;28;20196;-61
2022/01/15 04:58:30;;;;;;;4.90;3.17;;;;;;;;;;5030901;28;20208;-60
2022/01/15 05:00:57;;;;;;;2.50;1.97;;;;;;;;;;5031147;28;20221;-60
2022/01/15 05:03:24;;;;;;;6.70;2.27;;;;;;;;;;5030790;28;20218;-60
2022/01/15 05:05:53;;;;;;;5.53;2.10;;;;;;;;;;5030381;28;20221;-60
2022/01/15 05:08:20;;;;;;;8.63;3.10;;;;;;;;;;5030928;28;20208;-60
2022/01/15 05:10:48;;;;;;;4.13;2.80;;;;;;;;;;5030800;28;20212;-60
2022/01/15 05:13:15;;;;;;;8.77;2.40;;;;;;;;;;5030479;28;20266;-61
2022/01/15 05:15:44;;;;;;;9.07;3.00;;;;;;;;;;5030510;28;20623;-60
2022/01/15 05:18:12;;;;;;;6.77;2.27;;;;;;;;;;5030254;28;20244;-60
2022/01/15 05:20:43;;;;;;;4.00;2.23;;;;;;;;;;5030216;28;20216;-60
2022/01/15 05:23:11;;;;;;;6.57;3.10;;;;;;;;;;5029493;28;20255;-60
2022/01/15 05:25:39;;;;;;;11.80;4.10;;;;;;;;;;5030234;28;20224;-61
2022/01/15 05:28:06;;;;;;;11.63;2.83;;;;;;;;;;5029518;28;20669;-60
2022/01/15 05:30:33;;;;;;;10.07;3.63;;;;;;;;;;5030277;28;20251;-61
2022/01/15 05:33:00;;;;;;;6.10;2.80;;;;;;;;;;5030049;28;20294;-60
2022/01/15 05:35:28;;;;;;;6.97;2.73;;;;;;;;;;5029963;28;20201;-60
2022/01/15 05:37:55;;;;;;;6.27;2.90;;;;;;;;;;5030248;28;20220;-60
2022/01/15 05:40:23;;;;;;;5.57;2.23;;;;;;;;;;5030091;28;20214;-60
2022/01/15 05:42:52;;;;;;;7.87;3.47;;;;;;;;;;5029296;28;20267;-61
2022/01/15 05:45:19;;;;;;;6.37;2.40;;;;;;;;;;5029806;28;20317;-60
2022/01/15 05:47:46;;;;;;;7.23;3.03;;;;;;;;;;5030018;28;20255;-60
2022/01/15 05:50:13;;;;;;;6.57;2.17;;;;;;;;;;5029302;28;20643;-61
2022/01/15 05:52:40;;;;;;;8.90;2.23;;;;;;;;;;5029459;28;20264;-61
2022/01/15 05:55:08;;;;;;;8.00;2.50;;;;;;;;;;5029226;28;20212;-60
2022/01/15 05:57:37;;;;;;;1.97;1.50;;;;;;;;;;5028554;28;20205;-61
2022/01/15 06:00:05;;;;;;;8.10;2.40;;;;;;;;;;5029798;28;20282;-61
2022/01/15 06:02:32;;;;;;;1.17;0.93;;;;;;;;;;5029818;28;20574;-61
2022/01/15 06:04:59;;;;;;;8.57;2.67;;;;;;;;;;5028740;28;20667;-60
2022/01/15 06:07:26;;;;;;;5.80;2.30;;;;;;;;;;5028928;28;20204;-61
2022/01/15 06:09:53;;;;;;;5.43;2.70;;;;;;;;;;5028967;28;20209;-61
2022/01/15 06:12:27;;;;;;;6.60;2.60;;;;;;;;;;5016693;28;20215;-61
2022/01/15 06:14:56;;;;;;;5.53;2.63;;;;;;;;;;5011321;28;20217;-61
2022/01/15 06:17:23;;;;;;;4.73;2.70;;;;;;;;;;5028143;28;20212;-60
2022/01/15 06:19:50;;;;;;;4.17;2.80;;;;;;;;;;5028940;28;20270;-60
2022/01/15 06:22:17;;;;;;;2.20;1.67;;;;;;;;;;5028680;28;20210;-61
2022/01/15 06:24:44;;;;;;;4.23;1.73;;;;;;;;;;5017532;28;20210;-61
2022/01/15 06:27:12;;;;;;;3.03;2.40;;;;;;;;;;5028385;28;20246;-60
2022/01/15 06:29:39;;;;;;;1.77;1.63;;;;;;;;;;5028594;28;20304;-60
2022/01/15 06:32:08;;;;;;;1.60;1.60;;;;;;;;;;5028833;28;20212;-61
2022/01/15 06:34:35;;;;;;;3.10;1.73;;;;;;;;;;5028570;28;20892;-61
2022/01/15 06:37:02;;;;;;;3.07;1.23;;;;;;;;;;5028021;28;20253;-60
2022/01/15 06:39:29;;;;;;;7.90;1.80;;;;;;;;;;5028293;28;20212;-61
2022/01/15 06:41:56;;;;;;;2.47;1.77;;;;;;;;;;5028207;28;20205;-60
2022/01/15 06:44:23;;;;;;;2.60;2.40;;;;;;;;;;5028465;28;20213;-60
2022/01/15 06:46:50;;;;;;;4.73;2.27;;;;;;;;;;5028766;28;20224;-61
2022/01/15 06:49:19;;;;;;;2.20;2.00;;;;;;;;;;5028928;28;20216;-60
2022/01/15 06:51:46;;;;;;;1.70;1.37;;;;;;;;;;5028810;28;20205;-61
2022/01/15 06:54:13;;;;;;;5.47;2.30;;;;;;;;;;5028614;28;20733;-61
2022/01/15 06:56:40;;;;;;;2.97;1.53;;;;;;;;;;5028905;28;20645;-61
2022/01/15 06:59:07;;;;;;;6.63;2.27;;;;;;;;;;5027563;28;20212;-60
2022/01/15 07:01:34;;;;;;;2.93;1.90;;;;;;;;;;5028642;28;20205;-61
2022/01/15 07:04:01;;;;;;;2.93;1.70;;;;;;;;;;5027989;28;20625;-60
2022/01/15 07:06:29;;;;;;;3.70;1.73;;;;;;;;;;5029079;28;20238;-61
2022/01/15 07:08:56;;;;;;;2.30;1.67;;;;;;;;;;5033028;28;20218;-61
2022/01/15 07:11:23;;;;;;;4.73;1.67;;;;;;;;;;5032658;28;20214;-60
2022/01/15 07:13:50;;;;;;;4.73;1.77;;;;;;;;;;5032098;28;20208;-60
2022/01/15 07:16:17;;;;;;;1.63;1.43;;;;;;;;;;5032681;28;20267;-61
2022/01/15 07:18:44;;;;;;;3.00;1.93;;;;;;;;;;5032532;28;20213;-60
2022/01/15 07:21:12;;;;;;;1.93;1.83;;;;;;;;;;5031505;28;20211;-60
2022/01/15 07:23:40;;;;;;;7.87;1.83;;;;;;;;;;5032472;28;20745;-61
2022/01/15 07:26:07;;;;;;;1.97;1.37;;;;;;;;;;5032410;28;20237;-60
2022/01/15 07:28:35;;;;;;;1.77;1.67;;;;;;;;;;5033562;28;20628;-60
2022/01/15 07:31:02;;;;;;;2.10;1.33;;;;;;;;;;5040595;28;20207;-60
2022/01/15 07:33:29;;;;;;;3.20;1.47;;;;;;;;;;5039924;28;20325;-61
2022/01/15 07:35:57;;;;;;;4.00;1.87;;;;;;;;;;5040245;28;20603;-60
2022/01/15 07:38:24;;;;;;;2.60;1.30;;;;;;;;;;5037257;28;20285;-61
2022/01/15 07:40:56;;;;;;;0.77;0.77;;;;;;;;;;5040930;28;20688;-60
2022/01/15 07:43:24;;;;;;;2.93;1.80;;;;;;;;;;5041539;28;20205;-60
2022/01/15 07:45:51;;;;;;;1.73;1.00;;;;;;;;;;5041417;28;20240;-60
2022/01/15 07:48:21;;;;;;;1.37;1.03;;;;;;;;;;5041705;28;20213;-61
2022/01/15 07:50:48;;;;;;;2.33;2.07;;;;;;;;;;5036660;28;20239;-60
2022/01/15 07:53:15;;;;;;;2.27;1.00;;;;;;;;;;5038940;28;20253;-60
2022/01/15 07:55:42;;;;;;;1.97;1.73;;;;;;;;;;5040511;28;20589;-60
2022/01/15 07:58:11;;;;;;;3.53;2.10;;;;;;;;;;5039850;28;20262;-61
2022/01/15 08:00:38;;;;;;;2.60;1.57;;;;;;;;;;5037367;28;20211;-60
2022/01/15 08:03:05;;;;;;;1.30;1.17;;;;;;;;;;5041045;28;20258;-60
2022/01/15 08:05:32;;;;;;;2.80;1.90;;;;;;;;;;5036870;28;20295;-61
2022/01/15 08:07:59;;;;;;;1.57;1.47;;;;;;;;;;5029515;28;20211;-62
2022/01/15 08:10:26;;;;;;;1.70;1.10;;;;;;;;;;5029691;28;20257;-61
2022/01/15 08:12:53;;;;;;;2.10;1.97;;;;;;;;;;5027484;28;20211;-61
2022/01/15 08:15:22;;;;;;;3.43;1.63;;;;;;;;;;5027686;28;20218;-61
2022/01/15 08:17:49;;;;;;;2.60;1.60;;;;;;;;;;5030870;28;20215;-61
2022/01/15 08:20:17;;;;;;;3.07;2.00;;;;;;;;;;5029501;28;20203;-61
2022/01/15 08:22:45;;;;;;;3.47;1.60;;;;;;;;;;5029962;28;20265;-61
2022/01/15 08:25:12;;;;;;;1.63;1.53;;;;;;;;;;5027906;28;20247;-61
2022/01/15 08:27:39;;;;;;;1.57;1.47;;;;;;;;;;5029572;28;20235;-60
2022/01/15 08:30:07;;;;;;;1.67;1.57;;;;;;;;;;5030378;28;20215;-61
2022/01/15 08:32:36;;;;;;;3.40;1.97;;;;;;;;;;5029473;28;20208;-61
2022/01/15 08:35:03;;;;;;;8.60;2.80;;;;;;;;;;5030491;28;20216;-61
2022/01/15 08:37:30;;;;;;;2.90;2.30;;;;;;;;;;5028485;28;20207;-61
2022/01/15 08:39:57;;;;;;;3.20;2.00;;;;;;;;;;5030063;28;20675;-61
2022/01/15 08:42:24;;;;;;;1.10;0.77;;;;;;;;;;5029797;28;20875;-61
2022/01/15 08:44:52;;;;;;;2.40;1.93;;;;;;;;;;5025278;28;20214;-61
2022/01/15 08:47:19;;;;;;;1.63;1.40;;;;;;;;;;5025731;28;20238;-61
2022/01/15 08:49:48;;;;;;;4.23;2.67;;;;;;;;;;5026005;28;20279;-61
2022/01/15 08:52:15;;;;;;;6.50;4.50;;;;;;;;;;5024999;28;20755;-64
2022/01/15 08:54:42;;;;;;;7.70;5.00;;;;;;;;;;5026433;28;20270;-61
2022/01/15 08:57:09;;;;;;;1.77;1.67;;;;;;;;;;5025894;28;20211;-62
2022/01/15 08:59:36;;;;;;;4.10;2.47;;;;;;;;;;5026170;28;20217;-61
2022/01/15 09:02:03;;;;;;;1.57;1.47;;;;;;;;;;5025236;28;20820;-61
2022/01/15 09:07:19;;;;;;;2.70;2.50;;;;;;;;;;5024495;28;20232;-61
2022/01/15 09:09:46;;;;;;;2.70;2.53;;;;;;;;;;5025425;28;20227;-60
2022/01/15 09:12:15;;;;;;;2.10;1.67;;;;;;;;;;5025754;28;20272;-60
2022/01/15 09:14:42;;;;;;;1.60;1.50;;;;;;;;;;5025790;28;20224;-60
2022/01/15 09:17:09;;;;;;;1.53;1.43;;;;;;;;;;5024803;28;20243;-60
2022/01/15 09:19:36;;;;;;;1.93;1.50;;;;;;;;;;5023700;28;20208;-60
2022/01/15 09:22:09;;;;;;;3.40;2.33;;;;;;;;;;5025418;28;20270;-60
2022/01/15 09:24:37;;;;;;;3.50;1.60;;;;;;;;;;5025744;28;20219;-62
2022/01/15 09:30:12;;;;;;;2.27;1.73;;;;;;;;;;5021708;28;20999;-61
2022/01/15 09:32:37;;;;;;;0.60;0.60;;;;;;;;;;5012658;28;20701;-61
2022/01/15 09:35:05;;;;;;;2.33;2.07;;;;;;;;;;5025255;28;20215;-62
2022/01/15 09:37:32;;;;;;;1.63;1.47;;;;;;;;;;5025897;28;20212;-62
2022/01/15 09:40:00;;;;;;;1.90;1.03;;;;;;;;;;5026219;28;20215;-61
2022/01/15 09:42:28;;;;;;;1.13;1.10;;;;;;;;;;5019001;28;20215;-61
2022/01/15 09:44:55;;;;;;;3.80;1.97;;;;;;;;;;5025083;28;20539;-61
2022/01/15 09:47:22;;;;;;;1.00;1.00;;;;;;;;;;5023307;28;20230;-61
2022/01/15 09:49:50;;;;;;;4.43;1.23;;;;;;;;;;5022485;28;20248;-61
2022/01/15 09:52:18;;;;;;;1.40;1.10;;;;;;;;;;5020650;28;20218;-65
2022/01/15 09:54:45;;;;;;;1.10;1.10;;;;;;;;;;5020447;28;20261;-61
2022/01/15 09:57:13;;;;;;;0.20;0.13;;;;;;;;;;5025643;28;20219;-59
2022/01/15 09:59:41;;;;;;;0.70;0.70;;;;;;;;;;5025028;28;20207;-60
2022/01/15 10:02:08;;;;;;;1.90;1.10;;;;;;;;;;5025153;28;20701;-60
2022/01/15 10:04:35;;;;;;;0.90;0.87;;;;;;;;;;5018238;28;20215;-60
2022/01/15 10:07:15;;;;;;;1.53;1.43;;;;;;;;;;5021569;28;20230;-60
2022/01/15 10:09:43;;;;;;;1.43;1.40;;;;;;;;;;5024342;28;20222;-60
2022/01/15 10:12:10;;;;;;;3.17;1.27;;;;;;;;;;5016330;28;20234;-60
2022/01/15 10:14:40;;;;;;;2.73;1.33;;;;;;;;;;5022193;28;20214;-61
2022/01/15 10:17:20;;;;;;;1.53;1.43;;;;;;;;;;5024532;28;20323;-60
2022/01/15 10:19:48;;;;;;;2.40;0.90;;;;;;;;;;5018698;28;20215;-60
2022/01/15 10:22:16;;;;;;;2.97;0.80;;;;;;;;;;5023286;28;20219;-60
2022/01/15 10:24:44;;;;;;;1.20;1.20;;;;;;;;;;5024141;28;20223;-61
2022/01/15 10:27:22;;;;;;;2.77;1.53;;;;;;;;;;5023724;28;20286;-60
2022/01/15 10:29:57;;;;;;;0.93;0.93;;;;;;;;;;5022753;28;20213;-61
2022/01/15 10:32:25;;;;;;;1.17;0.70;;;;;;;;;;5023901;28;20277;-60
2022/01/15 10:34:53;;;;;;;0.90;0.90;;;;;;;;;;5024934;28;20607;-59
2022/01/15 10:37:20;;;;;;;1.40;1.30;;;;;;;;;;5016737;28;20481;-61
2022/01/15 10:39:58;;;;;;;2.67;1.73;;;;;;;;;;5025145;28;20293;-62
2022/01/15 10:42:25;;;;;;;1.03;1.03;;;;;;;;;;5024702;28;20306;-62
2022/01/15 10:44:53;;;;;;;2.20;1.17;;;;;;;;;;5024331;28;20925;-61
2022/01/15 10:47:22;;;;;;;0.53;0.53;;;;;;;;;;5024684;28;20242;-62
2022/01/15 10:49:50;;;;;;;0.63;0.63;;;;;;;;;;5024526;28;20646;-62
2022/01/15 10:52:23;;;;;;;6.70;1.60;;;;;;;;;;5023791;28;20219;-62
2022/01/15 10:54:54;;;;;;;4.00;2.20;;;;;;;;;;5024246;28;20211;-63
2022/01/15 10:57:23;;;;;;;1.53;1.40;;;;;;;;;;5023529;28;20211;-62
2022/01/15 11:00:09;;;;;;;1.47;1.10;;;;;;;;;;5023965;28;20274;-63
2022/01/15 11:02:38;;;;;;;1.27;1.23;;;;;;;;;;5023889;28;20219;-63
2022/01/15 11:05:19;;;;;;;0.80;0.57;;;;;;;;;;5017620;28;20210;-63
2022/01/15 11:07:47;;;;;;;1.67;1.50;;;;;;;;;;5019220;28;20254;-63
2022/01/15 11:10:14;;;;;;;1.57;1.27;;;;;;;;;;5023554;28;20207;-62
2022/01/15 11:12:41;;;;;;;3.80;1.70;;;;;;;;;;5023549;28;20211;-60
2022/01/15 11:15:08;;;;;;;2.53;1.67;;;;;;;;;;5021597;28;20211;-62
2022/01/15 11:17:35;;;;;;;0.83;0.83;;;;;;;;;;5020504;28;20273;-61
2022/01/15 11:20:05;;;;;;;2.13;0.90;;;;;;;;;;5023933;28;20212;-61
2022/01/15 11:22:33;;;;;;;1.90;1.73;;;;;;;;;;5023401;28;20591;-62
2022/01/15 11:25:00;;;;;;;2.53;1.93;;;;;;;;;;5023689;28;20204;-60
2022/01/15 11:27:29;;;;;;;5.03;1.57;;;;;;;;;;5023974;28;20227;-67
2022/01/15 11:29:58;;;;;;;1.53;1.43;;;;;;;;;;5023744;28;20212;-61
2022/01/15 11:32:25;;;;;;;1.93;1.67;;;;;;;;;;5023683;28;20214;-60
2022/01/15 11:35:04;;;;;;;1.53;1.43;;;;;;;;;;5023624;28;20270;-61
2022/01/15 11:37:42;;;;;;;1.03;0.80;;;;;;;;;;5024103;28;20208;-61
2022/01/15 11:43:27;;;;;;;3.13;1.30;;;;;;;;;;5000091;28;20321;-61
2022/01/15 11:45:55;;;;;;;2.20;2.10;;;;;;;;;;5022363;28;20210;-61
2022/01/15 11:48:23;;;;;;;3.00;2.00;;;;;;;;;;5022822;28;20236;-61
2022/01/15 11:51:05;;;;;;;1.67;1.57;;;;;;;;;;5023113;28;20228;-60
2022/01/15 11:53:49;;;;;;;2.53;1.60;;;;;;;;;;5015697;28;20211;-60
2022/01/15 11:56:16;;;;;;;3.33;1.67;;;;;;;;;;5027211;28;20678;-60
2022/01/15 11:58:43;;;;;;;2.33;2.13;;;;;;;;;;5027341;28;20231;-60
2022/01/15 12:01:37;;;;;;;4.30;1.77;;;;;;;;;;5024652;28;20635;-60
2022/01/15 12:04:23;;;;;;;2.10;2.00;;;;;;;;;;5026787;28;20309;-60
2022/01/15 12:07:13;;;;;;;1.30;1.30;;;;;;;;;;5024861;28;20674;-61
2022/01/15 12:09:42;;;;;;;0.57;0.57;;;;;;;;;;5023250;28;20211;-63
2022/01/15 12:12:29;;;;;;;1.60;1.50;;;;;;;;;;5024103;28;20757;-61
2022/01/15 12:17:42;;;;;;;2.50;1.23;;;;;;;;;;5021879;28;20613;-60
2022/01/15 12:20:30;;;;;;;1.00;0.90;;;;;;;;;;5026184;28;20678;-60
2022/01/15 12:22:58;;;;;;;3.67;2.10;;;;;;;;;;5024846;28;20206;-61
2022/01/15 12:25:31;;;;;;;1.70;1.60;;;;;;;;;;5026418;28;20219;-60
2022/01/15 12:27:59;;;;;;;2.63;1.60;;;;;;;;;;5026325;28;20228;-60
2022/01/15 12:30:29;;;;;;;1.77;1.67;;;;;;;;;;5026746;28;20212;-61
2022/01/15 12:32:56;;;;;;;3.37;1.23;;;;;;;;;;5026195;28;20239;-60
2022/01/15 12:35:25;;;;;;;5.40;1.60;;;;;;;;;;5026033;28;20215;-60
2022/01/15 12:37:56;;;;;;;1.40;1.37;;;;;;;;;;5026007;28;20258;-60
2022/01/15 12:40:28;;;;;;;1.07;0.57;;;;;;;;;;5026586;28;20211;-60
2022/01/15 12:42:57;;;;;;;2.63;2.20;;;;;;;;;;5026936;28;20212;-61
2022/01/15 12:45:24;;;;;;;1.70;1.60;;;;;;;;;;5024439;28;20213;-61
2022/01/15 12:47:51;;;;;;;0.73;0.73;;;;;;;;;;5025215;28;20517;-61
2022/01/15 12:50:18;;;;;;;3.97;1.67;;;;;;;;;;5025151;28;20227;-61
2022/01/15 12:52:45;;;;;;;2.67;2.00;;;;;;;;;;5024123;28;20219;-60
2022/01/15 12:55:13;;;;;;;1.40;1.23;;;;;;;;;;5025413;28;20214;-61
2022/01/15 12:57:40;;;;;;;0.83;0.83;;;;;;;;;;5023522;28;20261;-61
2022/01/15 13:00:10;;;;;;;2.00;1.80;;;;;;;;;;5023476;28;20218;-61
2022/01/15 13:02:37;;;;;;;2.17;2.07;;;;;;;;;;5024736;28;20204;-61
2022/01/15 13:05:05;;;;;;;2.53;2.30;;;;;;;;;;5023290;28;20277;-61
2022/01/15 13:07:46;;;;;;;1.77;1.60;;;;;;;;;;5024583;28;20236;-63
2022/01/15 13:10:25;;;;;;;1.17;1.17;;;;;;;;;;5024457;28;20208;-62
2022/01/15 13:12:52;;;;;;;1.47;1.37;;;;;;;;;;5023943;28;20204;-61
2022/01/15 13:15:22;;;;;;;3.27;2.57;;;;;;;;;;5023535;28;20226;-61
2022/01/15 13:17:49;;;;;;;2.03;1.37;;;;;;;;;;5023851;28;20211;-62
2022/01/15 13:20:29;;;;;;;4.13;3.13;;;;;;;;;;5024282;28;20724;-61
2022/01/15 13:22:56;;;;;;;1.63;1.53;;;;;;;;;;5021882;28;20203;-60
2022/01/15 13:25:24;;;;;;;2.13;1.83;;;;;;;;;;5020222;28;20208;-63
2022/01/15 13:27:51;;;;;;;2.43;2.30;;;;;;;;;;5023607;28;20657;-61
2022/01/15 13:30:19;;;;;;;1.67;1.57;;;;;;;;;;5023238;28;20260;-62
2022/01/15 13:32:58;;;;;;;0.90;0.90;;;;;;;;;;5022344;28;20277;-62
2022/01/15 13:35:25;;;;;;;2.73;2.47;;;;;;;;;;5023409;28;20390;-61
2022/01/15 13:37:53;;;;;;;1.93;1.83;;;;;;;;;;5022514;28;20274;-62
2022/01/15 13:40:34;;;;;;;1.37;1.00;;;;;;;;;;5022075;28;20291;-62
2022/01/15 13:43:01;;;;;;;4.73;2.20;;;;;;;;;;5023067;28;20211;-61
2022/01/15 13:45:28;;;;;;;1.63;1.50;;;;;;;;;;5021991;28;20258;-61
2022/01/15 13:48:07;;;;;;;2.27;2.07;;;;;;;;;;5022246;28;20239;-61
2022/01/15 13:53:28;;;;;;;2.33;2.13;;;;;;;;;;5023713;28;20210;-60
2022/01/15 13:56:09;;;;;;;1.47;1.03;;;;;;;;;;5023717;28;20273;-62
2022/01/15 13:58:36;;;;;;;6.33;1.47;;;;;;;;;;5024835;28;20673;-61
2022/01/15 14:01:15;;;;;;;1.73;1.43;;;;;;;;;;5024437;28;20216;-63
2022/01/15 14:03:44;;;;;;;0.60;0.47;;;;;;;;;;5024208;28;20457;-65
2022/01/15 14:06:12;;;;;;;2.60;1.90;;;;;;;;;;5023920;28;20214;-62
2022/01/15 14:08:42;;;;;;;1.93;1.60;;;;;;;;;;5020098;28;20231;-64
2022/01/15 14:11:17;;;;;;;6.17;1.87;;;;;;;;;;5022899;28;20291;-61
2022/01/15 14:13:45;;;;;;;1.57;1.53;;;;;;;;;;5023514;28;20223;-62
2022/01/15 14:16:25;;;;;;;2.57;2.37;;;;;;;;;;5023548;28;20242;-60
2022/01/15 14:19:01;;;;;;;2.67;2.00;;;;;;;;;;5023718;28;20200;-60
2022/01/15 14:24:24;;;;;;;2.43;2.23;;;;;;;;;;5021626;28;20250;-63
2022/01/15 14:26:54;;;;;;;1.40;1.30;;;;;;;;;;5024240;28;20204;-62
2022/01/15 14:29:21;;;;;;;2.87;2.67;;;;;;;;;;5023975;28;20749;-65
2022/01/15 14:31:48;;;;;;;2.30;2.10;;;;;;;;;;5024257;28;20212;-61
2022/01/15 14:34:18;;;;;;;5.60;3.30;;;;;;;;;;5023132;28;20239;-62
2022/01/15 14:36:45;;;;;;;4.67;3.00;;;;;;;;;;5023098;28;20212;-66
2022/01/15 14:39:22;;;;;;;5.03;2.63;;;;;;;;;;5024144;28;20929;-60
2022/01/15 14:41:49;;;;;;;4.43;2.83;;;;;;;;;;5024315;28;20212;-65
2022/01/15 14:44:16;;;;;;;3.60;2.87;;;;;;;;;;5023769;28;20200;-64
2022/01/15 14:46:44;;;;;;;4.43;3.37;;;;;;;;;;5023685;28;20640;-60
2022/01/15 14:49:11;;;;;;;5.17;3.10;;;;;;;;;;5024116;28;20236;-62
2022/01/15 14:51:39;;;;;;;5.83;3.00;;;;;;;;;;5023994;28;20734;-61
2022/01/15 14:54:06;;;;;;;4.00;2.97;;;;;;;;;;5023757;28;20212;-62
2022/01/15 14:56:33;;;;;;;4.07;3.10;;;;;;;;;;5023830;28;20216;-60
2022/01/15 14:59:01;;;;;;;5.53;3.30;;;;;;;;;;5024938;28;20219;-60
2022/01/15 15:01:30;;;;;;;5.13;3.10;;;;;;;;;;5024794;28;20241;-63
2022/01/15 15:04:00;;;;;;;5.50;3.10;;;;;;;;;;5013449;28;20671;-62
2022/01/15 15:06:27;;;;;;;3.23;2.80;;;;;;;;;;5020974;28;20238;-62
2022/01/15 15:08:55;;;;;;;2.87;2.13;;;;;;;;;;5009031;28;20293;-62
2022/01/15 15:11:23;;;;;;;5.00;3.33;;;;;;;;;;5024443;28;20211;-62
2022/01/15 15:13:50;;;;;;;5.60;3.50;;;;;;;;;;5024533;28;20742;-63
2022/01/15 15:16:18;;;;;;;3.43;2.70;;;;;;;;;;5022237;28;20212;-62
2022/01/15 15:18:45;;;;;;;4.27;2.97;;;;;;;;;;5021600;28;20232;-63
2022/01/15 15:21:13;;;;;;;2.53;2.17;;;;;;;;;;5020833;28;20216;-62
2022/01/15 15:23:41;;;;;;;4.23;2.80;;;;;;;;;;5021636;28;20212;-63
2022/01/15 15:26:13;;;;;;;0.80;0.80;;;;;;;;;;5021335;28;20204;-64
2022/01/15 15:28:49;;;;;;;3.67;2.43;;;;;;;;;;5023691;28;20243;-64
2022/01/15 15:31:17;;;;;;;2.60;1.93;;;;;;;;;;5023811;28;20204;-63
2022/01/15 15:33:46;;;;;;;1.60;1.50;;;;;;;;;;5025237;28;20251;-64